Time;durP1;ratioP1;P1;durP2;ratioP2;P2;SDS_P1;SDS_P2;PMS_P1;PMS_P2;Temp;Humidity;BMP_temperature;BMP_pressure;BME280_temperature;BME280_humidity;BME280_pressure;Samples;Min_cycle;Max_cycle;Signal;HPM_P1;HPM_P2
2023/09/25 00:00:19;;;;;;;206.80;86.07;;;;;;;;;;4993670;28;20404;-46
2023/09/25 00:02:45;;;;;;;200.20;80.47;;;;;;;;;;4993529;28;20416;-47
2023/09/25 00:05:11;;;;;;;204.50;80.70;;;;;;;;;;4993897;28;20400;-47
2023/09/25 00:07:38;;;;;;;210.43;82.57;;;;;;;;;;4993179;28;20424;-47
2023/09/25 00:10:05;;;;;;;222.60;86.30;;;;;;;;;;4990459;28;20427;-47
2023/09/25 00:12:30;;;;;;;212.43;83.17;;;;;;;;;;4992910;28;20435;-46
2023/09/25 00:14:56;;;;;;;204.23;81.20;;;;;;;;;;4993317;28;20950;-47
2023/09/25 00:17:22;;;;;;;207.33;84.83;;;;;;;;;;4993370;28;20770;-46
2023/09/25 00:19:48;;;;;;;213.97;84.80;;;;;;;;;;4993182;28;20851;-48
2023/09/25 00:22:20;;;;;;;215.27;83.70;;;;;;;;;;4992799;28;20438;-47
2023/09/25 00:24:46;;;;;;;215.93;83.90;;;;;;;;;;4993250;28;20427;-48
2023/09/25 00:27:12;;;;;;;200.97;83.37;;;;;;;;;;4993036;28;20417;-48
2023/09/25 00:29:39;;;;;;;210.30;83.47;;;;;;;;;;4993058;28;20462;-48
2023/09/25 00:32:05;;;;;;;211.50;85.13;;;;;;;;;;4993003;28;20763;-47
2023/09/25 00:34:31;;;;;;;206.37;81.67;;;;;;;;;;4992923;28;20453;-48
2023/09/25 00:36:59;;;;;;;212.73;82.67;;;;;;;;;;4993151;28;20462;-47
2023/09/25 00:39:25;;;;;;;208.93;80.90;;;;;;;;;;4992978;28;20979;-47
2023/09/25 00:41:51;;;;;;;216.23;87.07;;;;;;;;;;4992636;28;20428;-48
2023/09/25 00:44:17;;;;;;;212.23;81.53;;;;;;;;;;4992756;28;20458;-48
2023/09/25 00:46:43;;;;;;;216.13;83.33;;;;;;;;;;4992819;28;20473;-48
2023/09/25 00:49:09;;;;;;;216.83;82.67;;;;;;;;;;4992632;28;20416;-47
2023/09/25 00:51:36;;;;;;;224.33;83.97;;;;;;;;;;4991759;28;20436;-48
2023/09/25 00:54:02;;;;;;;226.73;83.73;;;;;;;;;;4992777;28;20506;-46
2023/09/25 00:56:28;;;;;;;226.53;83.47;;;;;;;;;;4975684;28;20464;-48
2023/09/25 00:58:54;;;;;;;223.20;82.57;;;;;;;;;;4979339;28;20482;-48
2023/09/25 01:01:20;;;;;;;227.53;85.57;;;;;;;;;;4992079;28;20411;-48
2023/09/25 01:03:46;;;;;;;230.37;87.27;;;;;;;;;;4992097;28;20415;-47
2023/09/25 01:06:12;;;;;;;231.53;84.47;;;;;;;;;;4992176;28;20930;-47
2023/09/25 01:08:40;;;;;;;224.37;83.10;;;;;;;;;;4989956;28;20446;-47
2023/09/25 01:11:07;;;;;;;229.17;86.07;;;;;;;;;;4988483;28;20462;-48
2023/09/25 01:13:33;;;;;;;228.37;84.27;;;;;;;;;;4992334;28;20418;-47
2023/09/25 01:15:59;;;;;;;231.17;82.87;;;;;;;;;;4992468;28;20573;-48
2023/09/25 01:18:25;;;;;;;233.07;85.40;;;;;;;;;;4992474;28;20408;-48
2023/09/25 01:20:51;;;;;;;234.57;87.33;;;;;;;;;;4987655;28;20415;-48
2023/09/25 01:23:17;;;;;;;231.03;83.33;;;;;;;;;;4986017;28;20518;-47
2023/09/25 01:25:43;;;;;;;231.53;83.63;;;;;;;;;;4992137;28;20439;-47
2023/09/25 01:28:09;;;;;;;232.33;86.00;;;;;;;;;;4992261;28;20408;-47
2023/09/25 01:30:35;;;;;;;226.37;85.70;;;;;;;;;;4992321;28;20868;-48
2023/09/25 01:33:01;;;;;;;226.30;86.57;;;;;;;;;;4992125;28;20462;-47
2023/09/25 01:35:27;;;;;;;226.67;82.30;;;;;;;;;;4992130;28;20500;-46
2023/09/25 01:38:03;;;;;;;223.07;82.27;;;;;;;;;;4985520;28;20875;-48
2023/09/25 01:40:29;;;;;;;229.10;85.47;;;;;;;;;;4992652;28;20439;-47
2023/09/25 01:42:55;;;;;;;225.17;84.17;;;;;;;;;;4984562;28;20459;-48
2023/09/25 01:45:21;;;;;;;227.70;86.13;;;;;;;;;;4990335;28;20510;-47
2023/09/25 01:47:51;;;;;;;228.17;82.73;;;;;;;;;;4992114;28;20944;-47
2023/09/25 01:50:21;;;;;;;230.63;84.80;;;;;;;;;;4992145;28;20896;-47
2023/09/25 01:52:48;;;;;;;231.07;85.07;;;;;;;;;;4991937;28;20530;-47
2023/09/25 01:55:14;;;;;;;222.77;82.37;;;;;;;;;;4991917;28;20464;-48
2023/09/25 01:57:40;;;;;;;232.27;83.63;;;;;;;;;;4992085;28;20415;-48
2023/09/25 02:00:10;;;;;;;227.73;86.90;;;;;;;;;;4991909;28;20439;-47
2023/09/25 02:02:42;;;;;;;227.47;84.13;;;;;;;;;;4984105;28;20438;-47
2023/09/25 02:05:09;;;;;;;232.13;85.43;;;;;;;;;;4995922;28;20413;-48
2023/09/25 02:07:34;;;;;;;226.03;82.77;;;;;;;;;;4984777;28;20407;-48
2023/09/25 02:10:00;;;;;;;224.47;83.57;;;;;;;;;;4983527;28;20411;-47
2023/09/25 02:12:27;;;;;;;235.03;86.17;;;;;;;;;;4995460;28;20511;-48
2023/09/25 02:14:54;;;;;;;232.37;85.93;;;;;;;;;;4992855;28;20868;-47
2023/09/25 02:17:20;;;;;;;228.83;85.23;;;;;;;;;;4995693;28;20439;-47
2023/09/25 02:19:46;;;;;;;225.67;83.07;;;;;;;;;;4995476;28;20434;-46
2023/09/25 02:22:12;;;;;;;227.33;85.37;;;;;;;;;;4995284;28;20463;-47
2023/09/25 02:24:39;;;;;;;227.83;83.13;;;;;;;;;;4995556;28;20397;-48
2023/09/25 02:27:05;;;;;;;228.10;84.60;;;;;;;;;;4995494;28;20440;-48
2023/09/25 02:29:31;;;;;;;229.27;84.00;;;;;;;;;;4995355;28;20401;-47
2023/09/25 02:31:57;;;;;;;231.37;85.00;;;;;;;;;;4995088;28;20467;-47
2023/09/25 02:34:23;;;;;;;233.63;87.40;;;;;;;;;;4981158;28;20412;-47
2023/09/25 02:36:49;;;;;;;234.60;86.97;;;;;;;;;;4995199;28;20574;-48
2023/09/25 02:39:15;;;;;;;231.97;87.77;;;;;;;;;;4995362;28;20446;-47
2023/09/25 02:41:41;;;;;;;230.73;84.83;;;;;;;;;;4995338;28;21064;-47
2023/09/25 02:44:07;;;;;;;229.83;84.80;;;;;;;;;;4994879;28;20436;-47
2023/09/25 02:46:33;;;;;;;224.20;84.17;;;;;;;;;;4995017;28;20413;-47
2023/09/25 02:48:59;;;;;;;225.10;82.90;;;;;;;;;;4995041;28;20404;-48
2023/09/25 02:51:25;;;;;;;224.27;84.60;;;;;;;;;;4987222;28;20419;-47
2023/09/25 02:53:52;;;;;;;217.60;83.47;;;;;;;;;;4995077;28;20412;-47
2023/09/25 02:56:18;;;;;;;228.93;86.00;;;;;;;;;;4994708;28;20977;-48
2023/09/25 02:58:44;;;;;;;227.10;85.67;;;;;;;;;;4994781;28;20401;-47
2023/09/25 03:01:10;;;;;;;227.97;81.67;;;;;;;;;;4988537;28;20419;-47
2023/09/25 03:03:36;;;;;;;230.43;85.80;;;;;;;;;;4991557;28;20445;-47
2023/09/25 03:06:02;;;;;;;225.77;80.57;;;;;;;;;;4990607;28;20418;-47
2023/09/25 03:08:28;;;;;;;221.17;85.30;;;;;;;;;;4994840;28;20419;-47
2023/09/25 03:10:54;;;;;;;230.63;84.40;;;;;;;;;;4994549;28;20420;-48
2023/09/25 03:13:20;;;;;;;226.57;86.50;;;;;;;;;;4993989;28;20443;-48
2023/09/25 03:15:46;;;;;;;225.37;85.17;;;;;;;;;;4993797;28;20460;-46
2023/09/25 03:18:12;;;;;;;232.43;85.33;;;;;;;;;;4994341;28;20404;-48
2023/09/25 03:20:41;;;;;;;231.80;83.77;;;;;;;;;;4994601;28;20466;-47
2023/09/25 03:23:07;;;;;;;236.77;87.53;;;;;;;;;;4994451;28;20428;-48
2023/09/25 03:25:36;;;;;;;234.33;83.47;;;;;;;;;;4994385;28;20769;-48
2023/09/25 03:28:02;;;;;;;228.30;80.50;;;;;;;;;;4994494;28;20449;-46
2023/09/25 03:30:29;;;;;;;229.97;87.13;;;;;;;;;;4994045;28;20518;-47
2023/09/25 03:32:55;;;;;;;227.83;82.33;;;;;;;;;;4993914;28;20480;-47
2023/09/25 03:35:23;;;;;;;226.50;84.77;;;;;;;;;;4993218;28;20606;-47
2023/09/25 03:37:49;;;;;;;226.37;82.77;;;;;;;;;;4994131;28;20443;-47
2023/09/25 03:40:15;;;;;;;222.50;83.77;;;;;;;;;;4994038;28;20501;-48
2023/09/25 03:42:42;;;;;;;225.10;82.60;;;;;;;;;;4993806;28;20424;-47
2023/09/25 03:45:08;;;;;;;224.47;81.77;;;;;;;;;;4993966;28;20435;-47
2023/09/25 03:47:35;;;;;;;227.67;84.80;;;;;;;;;;4993424;28;20499;-47
2023/09/25 03:50:02;;;;;;;226.67;82.97;;;;;;;;;;4992984;28;20499;-47
2023/09/25 03:52:28;;;;;;;224.80;83.87;;;;;;;;;;4993461;28;20439;-47
2023/09/25 03:54:54;;;;;;;228.90;83.47;;;;;;;;;;4993822;28;20954;-48
2023/09/25 03:57:20;;;;;;;224.77;82.17;;;;;;;;;;4993702;28;20443;-48
2023/09/25 03:59:46;;;;;;;223.33;81.97;;;;;;;;;;4993516;28;20458;-48
2023/09/25 04:02:12;;;;;;;225.07;83.93;;;;;;;;;;4992794;28;20429;-48
2023/09/25 04:04:38;;;;;;;226.77;84.37;;;;;;;;;;4993774;28;20428;-48
2023/09/25 04:07:04;;;;;;;224.60;84.30;;;;;;;;;;4993725;28;20408;-48
2023/09/25 04:09:30;;;;;;;228.00;82.47;;;;;;;;;;4993531;28;20416;-47
2023/09/25 04:11:59;;;;;;;230.07;88.37;;;;;;;;;;4993260;28;20814;-48
2023/09/25 04:14:27;;;;;;;219.87;86.07;;;;;;;;;;4993509;28;20427;-48
2023/09/25 04:16:54;;;;;;;222.27;82.87;;;;;;;;;;4993408;28;20471;-47
2023/09/25 04:19:20;;;;;;;227.20;81.87;;;;;;;;;;4993278;28;20412;-47
2023/09/25 04:21:47;;;;;;;227.00;85.10;;;;;;;;;;4991968;28;20427;-48
2023/09/25 04:24:13;;;;;;;226.50;84.37;;;;;;;;;;4990800;28;20753;-48
2023/09/25 04:26:39;;;;;;;225.27;80.10;;;;;;;;;;4992952;28;20407;-47
2023/09/25 04:29:05;;;;;;;228.27;85.00;;;;;;;;;;4993076;28;20400;-48
2023/09/25 04:31:35;;;;;;;224.53;81.40;;;;;;;;;;4992184;28;20423;-48
2023/09/25 04:34:03;;;;;;;224.07;80.80;;;;;;;;;;4993112;28;20435;-46
2023/09/25 04:36:29;;;;;;;225.87;82.10;;;;;;;;;;4993037;28;20483;-47
2023/09/25 04:38:55;;;;;;;226.97;81.37;;;;;;;;;;4992998;28;20397;-48
2023/09/25 04:41:21;;;;;;;225.53;81.97;;;;;;;;;;4992741;28;20417;-47
2023/09/25 04:43:47;;;;;;;222.47;80.97;;;;;;;;;;4992906;28;20502;-48
2023/09/25 04:46:13;;;;;;;220.50;82.50;;;;;;;;;;4984329;28;20578;-47
2023/09/25 04:48:39;;;;;;;223.47;80.30;;;;;;;;;;4992889;28;20777;-48
2023/09/25 04:51:06;;;;;;;220.63;82.43;;;;;;;;;;4988684;28;20896;-47
2023/09/25 04:53:32;;;;;;;208.43;81.77;;;;;;;;;;4992587;28;20502;-48
2023/09/25 04:55:58;;;;;;;186.27;80.33;;;;;;;;;;4992539;28;20456;-47
2023/09/25 04:58:24;;;;;;;200.70;81.73;;;;;;;;;;4992702;28;20922;-48
2023/09/25 05:00:50;;;;;;;202.80;81.30;;;;;;;;;;4992607;28;20918;-48
2023/09/25 05:03:16;;;;;;;214.23;82.07;;;;;;;;;;4992558;28;20782;-47
2023/09/25 05:05:42;;;;;;;212.03;83.47;;;;;;;;;;4992723;28;20443;-48
2023/09/25 05:08:07;;;;;;;216.23;83.87;;;;;;;;;;4979228;28;20417;-48
2023/09/25 05:10:33;;;;;;;212.33;81.83;;;;;;;;;;4985349;28;20416;-47
2023/09/25 05:12:59;;;;;;;224.03;81.57;;;;;;;;;;4992388;28;20428;-48
2023/09/25 05:15:25;;;;;;;223.73;83.20;;;;;;;;;;4992336;28;20460;-47
2023/09/25 05:17:51;;;;;;;204.03;82.60;;;;;;;;;;4992466;28;20478;-47
2023/09/25 05:20:22;;;;;;;203.13;81.97;;;;;;;;;;4992429;28;20414;-47
2023/09/25 05:22:49;;;;;;;202.07;82.00;;;;;;;;;;4986702;28;20517;-47
2023/09/25 05:25:15;;;;;;;197.73;79.47;;;;;;;;;;4992217;28;20418;-48
2023/09/25 05:27:52;;;;;;;199.00;79.30;;;;;;;;;;4992612;28;20416;-47
2023/09/25 05:30:18;;;;;;;217.70;82.63;;;;;;;;;;4980784;28;20499;-47
2023/09/25 05:32:46;;;;;;;222.47;82.03;;;;;;;;;;4985582;28;21001;-47
2023/09/25 05:35:12;;;;;;;214.60;80.17;;;;;;;;;;4992119;28;20466;-47
2023/09/25 05:37:40;;;;;;;206.63;83.57;;;;;;;;;;4990679;28;20432;-48
2023/09/25 05:40:10;;;;;;;204.57;79.30;;;;;;;;;;4977218;28;20419;-47
2023/09/25 05:42:36;;;;;;;211.47;79.57;;;;;;;;;;4988530;28;20420;-47
2023/09/25 05:45:03;;;;;;;207.67;77.37;;;;;;;;;;4996134;28;20434;-48
2023/09/25 05:47:29;;;;;;;202.67;77.07;;;;;;;;;;4996122;28;20448;-47
2023/09/25 05:49:54;;;;;;;209.83;82.80;;;;;;;;;;4996180;28;20446;-47
2023/09/25 05:52:20;;;;;;;199.87;81.47;;;;;;;;;;4995647;28;20427;-48
2023/09/25 05:54:47;;;;;;;203.70;84.37;;;;;;;;;;4990339;28;20415;-47
2023/09/25 05:57:12;;;;;;;209.77;85.27;;;;;;;;;;4982994;28;20414;-47
2023/09/25 05:59:38;;;;;;;209.20;83.93;;;;;;;;;;4996012;28;20511;-46
2023/09/25 06:02:04;;;;;;;210.93;83.47;;;;;;;;;;4995858;28;20432;-47
2023/09/25 06:04:35;;;;;;;210.83;83.77;;;;;;;;;;4995861;28;20470;-47
2023/09/25 06:07:01;;;;;;;207.40;83.90;;;;;;;;;;4995874;28;20419;-48
2023/09/25 06:09:27;;;;;;;212.27;82.00;;;;;;;;;;4995694;28;20412;-46
2023/09/25 06:11:53;;;;;;;212.57;81.43;;;;;;;;;;4995507;28;20438;-48
2023/09/25 06:14:19;;;;;;;217.03;85.30;;;;;;;;;;4992398;28;20443;-48
2023/09/25 06:16:44;;;;;;;217.97;86.37;;;;;;;;;;4993585;28;20546;-48
2023/09/25 06:19:12;;;;;;;217.77;83.97;;;;;;;;;;4992577;28;20427;-47
2023/09/25 06:21:38;;;;;;;220.43;82.97;;;;;;;;;;4980919;28;20427;-48
2023/09/25 06:24:09;;;;;;;218.47;84.07;;;;;;;;;;4995710;28;20530;-47
2023/09/25 06:26:35;;;;;;;220.27;86.70;;;;;;;;;;4989559;28;20408;-46
2023/09/25 06:29:01;;;;;;;220.57;85.90;;;;;;;;;;4995409;28;20412;-47
2023/09/25 06:31:27;;;;;;;223.67;85.70;;;;;;;;;;4995119;28;20462;-46
2023/09/25 06:33:53;;;;;;;225.53;84.43;;;;;;;;;;4995365;28;20413;-46
2023/09/25 06:36:19;;;;;;;229.67;88.30;;;;;;;;;;4994796;28;20543;-47
2023/09/25 06:38:45;;;;;;;226.37;84.07;;;;;;;;;;4995211;28;20899;-47
2023/09/25 06:41:12;;;;;;;230.27;88.77;;;;;;;;;;4989452;28;20415;-47
2023/09/25 06:43:38;;;;;;;221.77;88.23;;;;;;;;;;4994920;28;20486;-46
2023/09/25 06:46:04;;;;;;;229.03;90.17;;;;;;;;;;4989933;28;20420;-47
2023/09/25 06:48:32;;;;;;;226.23;87.30;;;;;;;;;;4987865;28;20418;-46
2023/09/25 06:50:58;;;;;;;233.80;92.87;;;;;;;;;;4995029;28;20412;-47
2023/09/25 06:53:24;;;;;;;232.47;91.27;;;;;;;;;;4994773;28;20443;-47
2023/09/25 06:55:50;;;;;;;231.13;91.53;;;;;;;;;;4994719;28;20860;-47
2023/09/25 06:58:16;;;;;;;227.17;93.97;;;;;;;;;;4994761;28;20547;-48
2023/09/25 07:00:45;;;;;;;228.80;92.00;;;;;;;;;;4994520;28;20413;-46
2023/09/25 07:03:11;;;;;;;223.40;93.80;;;;;;;;;;4994276;28;20432;-47
2023/09/25 07:05:37;;;;;;;235.70;93.30;;;;;;;;;;4994373;28;20409;-47
2023/09/25 07:08:03;;;;;;;236.60;90.17;;;;;;;;;;4994810;28;20420;-46
2023/09/25 07:10:30;;;;;;;239.37;93.57;;;;;;;;;;4982661;28;20439;-47
2023/09/25 07:12:56;;;;;;;242.70;97.63;;;;;;;;;;4989238;28;20944;-48
2023/09/25 07:15:22;;;;;;;242.37;96.07;;;;;;;;;;4994378;28;20468;-47
2023/09/25 07:17:48;;;;;;;244.53;98.73;;;;;;;;;;4994231;28;20439;-47
2023/09/25 07:20:14;;;;;;;240.03;91.60;;;;;;;;;;4989423;28;20422;-47
2023/09/25 07:22:42;;;;;;;244.77;97.67;;;;;;;;;;4994039;28;20426;-47
2023/09/25 07:25:09;;;;;;;242.27;96.33;;;;;;;;;;4994375;28;20406;-48
2023/09/25 07:27:35;;;;;;;244.20;99.47;;;;;;;;;;4993014;28;20416;-48
2023/09/25 07:30:05;;;;;;;240.40;95.20;;;;;;;;;;4994164;28;20443;-48
2023/09/25 07:32:32;;;;;;;248.23;104.70;;;;;;;;;;4993698;28;20443;-47
2023/09/25 07:34:58;;;;;;;248.00;105.30;;;;;;;;;;4994111;28;20455;-47
2023/09/25 07:37:24;;;;;;;240.60;95.70;;;;;;;;;;4993870;28;20917;-46
2023/09/25 07:39:50;;;;;;;242.93;99.40;;;;;;;;;;4993946;28;20412;-48
2023/09/25 07:42:16;;;;;;;244.47;99.93;;;;;;;;;;4994130;28;20909;-47
2023/09/25 07:44:43;;;;;;;246.43;101.97;;;;;;;;;;4993862;28;20514;-47
2023/09/25 07:47:10;;;;;;;243.17;97.93;;;;;;;;;;4994058;28;20423;-50
2023/09/25 07:49:40;;;;;;;244.37;101.20;;;;;;;;;;4993907;28;20425;-47
2023/09/25 07:52:15;;;;;;;244.77;99.33;;;;;;;;;;4993530;28;20927;-47
2023/09/25 07:54:41;;;;;;;242.57;96.33;;;;;;;;;;4986771;28;20502;-49
2023/09/25 07:57:07;;;;;;;240.97;93.67;;;;;;;;;;4993702;28;20468;-46
2023/09/25 07:59:33;;;;;;;243.80;99.20;;;;;;;;;;4993105;28;20415;-48
2023/09/25 08:02:01;;;;;;;248.50;103.97;;;;;;;;;;4992920;28;20490;-47
2023/09/25 08:04:27;;;;;;;246.47;100.23;;;;;;;;;;4993565;28;20950;-46
2023/09/25 08:06:53;;;;;;;248.27;102.93;;;;;;;;;;4993540;28;20408;-46
2023/09/25 08:09:20;;;;;;;248.53;102.30;;;;;;;;;;4993318;28;20478;-46
2023/09/25 08:11:46;;;;;;;249.27;105.70;;;;;;;;;;4991814;28;20975;-46
2023/09/25 08:14:12;;;;;;;248.87;104.17;;;;;;;;;;4993290;28;20431;-47
2023/09/25 08:16:41;;;;;;;250.67;105.37;;;;;;;;;;4993593;28;20986;-48
2023/09/25 08:19:07;;;;;;;248.57;102.07;;;;;;;;;;4993165;28;20775;-48
2023/09/25 08:21:33;;;;;;;247.17;100.03;;;;;;;;;;4993028;28;21187;-48
2023/09/25 08:23:59;;;;;;;249.53;104.10;;;;;;;;;;4993218;28;20822;-49
2023/09/25 08:26:25;;;;;;;245.83;98.83;;;;;;;;;;4992974;28;20447;-47
2023/09/25 08:28:51;;;;;;;247.80;101.07;;;;;;;;;;4993086;28;20843;-47
2023/09/25 08:31:17;;;;;;;247.77;100.23;;;;;;;;;;4992838;28;20510;-47
2023/09/25 08:33:43;;;;;;;249.13;102.10;;;;;;;;;;4992537;28;20967;-48
2023/09/25 08:36:13;;;;;;;243.87;96.37;;;;;;;;;;4991845;28;20448;-48
2023/09/25 08:38:39;;;;;;;249.20;103.80;;;;;;;;;;4992937;28;20550;-48
2023/09/25 08:41:05;;;;;;;247.17;99.87;;;;;;;;;;4992703;28;20415;-48
2023/09/25 08:43:31;;;;;;;247.43;103.83;;;;;;;;;;4992554;28;20424;-49
2023/09/25 08:45:57;;;;;;;243.60;96.83;;;;;;;;;;4992813;28;20423;-48
2023/09/25 08:48:24;;;;;;;244.53;99.03;;;;;;;;;;4992676;28;20412;-49
2023/09/25 08:50:50;;;;;;;253.93;109.23;;;;;;;;;;4992434;28;20400;-48
2023/09/25 08:53:16;;;;;;;249.13;105.13;;;;;;;;;;4992592;28;20482;-49
2023/09/25 08:55:45;;;;;;;248.30;107.77;;;;;;;;;;4992567;28;20457;-49
2023/09/25 08:58:11;;;;;;;246.73;104.63;;;;;;;;;;4992446;28;20418;-47
2023/09/25 09:00:38;;;;;;;252.93;115.93;;;;;;;;;;4992265;28;20419;-48
2023/09/25 09:03:05;;;;;;;248.47;113.57;;;;;;;;;;4992360;28;20803;-47
2023/09/25 09:05:31;;;;;;;249.87;114.80;;;;;;;;;;4992460;28;20390;-47
2023/09/25 09:08:01;;;;;;;246.83;115.87;;;;;;;;;;4992525;28;20390;-47
2023/09/25 09:10:34;;;;;;;249.77;116.33;;;;;;;;;;4992078;28;20412;-47
2023/09/25 09:13:01;;;;;;;248.23;118.00;;;;;;;;;;4990820;28;20497;-48
2023/09/25 09:15:28;;;;;;;247.33;119.57;;;;;;;;;;4991447;28;20429;-46
2023/09/25 09:17:57;;;;;;;249.47;121.53;;;;;;;;;;4988989;28;20383;-48
2023/09/25 09:20:35;;;;;;;249.13;120.10;;;;;;;;;;4987254;28;20437;-47
2023/09/25 09:23:00;;;;;;;245.17;117.17;;;;;;;;;;4992190;28;20442;-49
2023/09/25 09:25:27;;;;;;;249.13;124.03;;;;;;;;;;4992023;28;20428;-47
2023/09/25 09:27:53;;;;;;;249.60;124.77;;;;;;;;;;4992250;28;20424;-47
2023/09/25 09:30:23;;;;;;;247.93;120.93;;;;;;;;;;4992012;28;20420;-49
2023/09/25 09:32:50;;;;;;;256.70;141.97;;;;;;;;;;4991840;28;20395;-47
2023/09/25 09:35:19;;;;;;;248.03;123.27;;;;;;;;;;4992044;28;20426;-48
2023/09/25 09:37:45;;;;;;;274.63;143.17;;;;;;;;;;4990981;28;20791;-47
2023/09/25 09:40:11;;;;;;;251.80;128.73;;;;;;;;;;4975608;28;20387;-47
2023/09/25 09:42:40;;;;;;;251.63;128.77;;;;;;;;;;4985896;28;20434;-47
2023/09/25 09:45:08;;;;;;;245.53;122.80;;;;;;;;;;4981085;28;20459;-47
2023/09/25 09:47:36;;;;;;;248.47;124.40;;;;;;;;;;4980841;28;20415;-48
2023/09/25 09:50:02;;;;;;;250.17;129.73;;;;;;;;;;4990622;28;20398;-48
2023/09/25 09:52:29;;;;;;;247.43;124.90;;;;;;;;;;4989138;28;20424;-47
2023/09/25 09:54:56;;;;;;;248.77;129.97;;;;;;;;;;4972549;28;20433;-47
2023/09/25 09:57:23;;;;;;;247.37;125.20;;;;;;;;;;4991816;28;20796;-47
2023/09/25 09:59:49;;;;;;;249.20;133.20;;;;;;;;;;4991790;28;20408;-47
2023/09/25 10:02:15;;;;;;;246.17;125.43;;;;;;;;;;4991520;28;20458;-47
2023/09/25 10:04:41;;;;;;;249.60;131.80;;;;;;;;;;4991790;28;20416;-46
2023/09/25 10:07:08;;;;;;;248.77;131.20;;;;;;;;;;4984326;28;20415;-47
2023/09/25 10:09:35;;;;;;;251.23;137.60;;;;;;;;;;4977298;28;20453;-47
2023/09/25 10:12:02;;;;;;;247.80;135.53;;;;;;;;;;4989250;28;20482;-47
2023/09/25 10:14:31;;;;;;;252.47;139.30;;;;;;;;;;4990947;28;20444;-47
2023/09/25 10:17:04;;;;;;;252.07;138.43;;;;;;;;;;4988028;28;20498;-48
2023/09/25 10:19:52;;;;;;;256.10;140.63;;;;;;;;;;4989491;28;20440;-47
2023/09/25 10:22:22;;;;;;;248.27;130.73;;;;;;;;;;4987183;28;20424;-48
2023/09/25 10:24:59;;;;;;;251.83;135.83;;;;;;;;;;4989632;28;20417;-48
2023/09/25 10:27:25;;;;;;;251.97;142.10;;;;;;;;;;4992082;28;20766;-48
2023/09/25 10:30:05;;;;;;;249.37;135.50;;;;;;;;;;4993651;28;20404;-48
2023/09/25 10:32:31;;;;;;;250.70;136.10;;;;;;;;;;4976675;28;20407;-48
2023/09/25 10:34:57;;;;;;;250.80;136.67;;;;;;;;;;4992195;28;20420;-48
2023/09/25 10:37:23;;;;;;;248.27;133.10;;;;;;;;;;4992891;28;20982;-47
2023/09/25 10:39:57;;;;;;;247.23;131.63;;;;;;;;;;4993200;28;20412;-48
2023/09/25 10:42:23;;;;;;;251.90;139.40;;;;;;;;;;4990535;28;20419;-47
2023/09/25 10:44:49;;;;;;;249.70;137.17;;;;;;;;;;4992649;28;20899;-47
2023/09/25 10:47:15;;;;;;;257.33;141.87;;;;;;;;;;4992266;28;20448;-48
2023/09/25 10:49:41;;;;;;;245.87;133.87;;;;;;;;;;4993341;28;20507;-47
2023/09/25 10:52:07;;;;;;;250.77;139.17;;;;;;;;;;4992282;28;20446;-46
2023/09/25 10:54:34;;;;;;;252.43;137.67;;;;;;;;;;4992593;28;20416;-45
2023/09/25 10:57:00;;;;;;;249.63;140.13;;;;;;;;;;4989189;28;20798;-48
2023/09/25 10:59:26;;;;;;;247.47;135.43;;;;;;;;;;4987916;28;20408;-47
2023/09/25 11:01:52;;;;;;;248.40;137.20;;;;;;;;;;4991798;28;20428;-47
2023/09/25 11:04:18;;;;;;;250.63;137.47;;;;;;;;;;4993244;28;20463;-47
2023/09/25 11:06:45;;;;;;;254.50;141.70;;;;;;;;;;4992957;28;20416;-47
2023/09/25 11:09:16;;;;;;;249.77;141.00;;;;;;;;;;4987987;28;20445;-47
2023/09/25 11:11:41;;;;;;;247.20;134.60;;;;;;;;;;4983356;28;20479;-47
2023/09/25 11:14:08;;;;;;;249.53;140.13;;;;;;;;;;4990737;28;20416;-48
2023/09/25 11:16:34;;;;;;;248.87;138.20;;;;;;;;;;4992778;28;20530;-47
2023/09/25 11:19:05;;;;;;;251.80;139.77;;;;;;;;;;4992152;28;20959;-47
2023/09/25 11:21:31;;;;;;;251.47;139.80;;;;;;;;;;4989201;28;20432;-48
2023/09/25 11:23:57;;;;;;;247.53;135.50;;;;;;;;;;4993063;28;20951;-48
2023/09/25 11:26:27;;;;;;;254.60;136.33;;;;;;;;;;4990427;28;20424;-47
2023/09/25 11:28:56;;;;;;;251.97;140.83;;;;;;;;;;4991869;28;20408;-48
2023/09/25 11:31:22;;;;;;;255.07;140.67;;;;;;;;;;4991470;28;20420;-47
2023/09/25 11:33:48;;;;;;;251.63;138.63;;;;;;;;;;4989210;28;20966;-47
2023/09/25 11:36:14;;;;;;;249.30;132.43;;;;;;;;;;4991224;28;20530;-47
2023/09/25 11:38:40;;;;;;;250.37;137.93;;;;;;;;;;4991725;28;20407;-47
2023/09/25 11:41:07;;;;;;;256.73;135.63;;;;;;;;;;4990605;28;20926;-47
2023/09/25 11:43:35;;;;;;;245.40;131.17;;;;;;;;;;4990536;28;20473;-48
2023/09/25 11:46:01;;;;;;;256.20;138.03;;;;;;;;;;4991910;28;20875;-47
2023/09/25 11:48:27;;;;;;;252.63;140.10;;;;;;;;;;4990198;28;20431;-47
2023/09/25 11:50:53;;;;;;;250.47;135.93;;;;;;;;;;4991622;28;20814;-48
2023/09/25 11:53:19;;;;;;;254.20;142.10;;;;;;;;;;4991729;28;20418;-47
2023/09/25 11:55:47;;;;;;;248.10;132.80;;;;;;;;;;4992011;28;20459;-47
2023/09/25 11:58:14;;;;;;;254.63;139.33;;;;;;;;;;4991558;28;20416;-48
2023/09/25 12:00:40;;;;;;;258.40;138.83;;;;;;;;;;4989805;28;20418;-47
2023/09/25 12:03:08;;;;;;;251.47;137.73;;;;;;;;;;4990908;28;20779;-47
2023/09/25 12:05:35;;;;;;;249.63;132.17;;;;;;;;;;4984836;28;20415;-47
2023/09/25 12:08:01;;;;;;;248.93;133.10;;;;;;;;;;4991578;28;20970;-48
2023/09/25 12:10:27;;;;;;;254.10;136.13;;;;;;;;;;4990639;28;20416;-47
2023/09/25 12:12:53;;;;;;;252.90;143.00;;;;;;;;;;4991455;28;20478;-48
2023/09/25 12:15:19;;;;;;;249.70;138.50;;;;;;;;;;4991617;28;20460;-48
2023/09/25 12:17:45;;;;;;;251.50;137.97;;;;;;;;;;4991494;28;20775;-46
2023/09/25 12:20:14;;;;;;;255.53;146.60;;;;;;;;;;4989502;28;20782;-47
2023/09/25 12:22:40;;;;;;;250.40;138.57;;;;;;;;;;4991162;28;20435;-47
2023/09/25 12:25:09;;;;;;;251.43;137.23;;;;;;;;;;4991185;28;20474;-47
2023/09/25 12:27:35;;;;;;;251.20;138.83;;;;;;;;;;4989523;28;20386;-47
2023/09/25 12:30:01;;;;;;;248.97;137.13;;;;;;;;;;4991122;28;20849;-48
2023/09/25 12:32:27;;;;;;;253.33;142.17;;;;;;;;;;4987906;28;20423;-48
2023/09/25 12:34:53;;;;;;;250.00;139.47;;;;;;;;;;4991520;28;20431;-48
2023/09/25 12:37:19;;;;;;;249.43;139.50;;;;;;;;;;4990965;28;20502;-48
2023/09/25 12:39:45;;;;;;;250.50;142.20;;;;;;;;;;4990861;28;20412;-47
2023/09/25 12:42:11;;;;;;;255.67;143.97;;;;;;;;;;4988357;28;20432;-46
2023/09/25 12:44:37;;;;;;;250.20;137.63;;;;;;;;;;4990290;28;20429;-47
2023/09/25 12:47:03;;;;;;;255.93;145.93;;;;;;;;;;4990138;28;20408;-47
2023/09/25 12:49:29;;;;;;;245.40;135.17;;;;;;;;;;4991163;28;20801;-48
2023/09/25 12:51:55;;;;;;;251.57;140.03;;;;;;;;;;4986003;28;20459;-48
2023/09/25 12:54:21;;;;;;;251.13;141.10;;;;;;;;;;4988452;28;20420;-47
2023/09/25 12:56:48;;;;;;;245.80;135.80;;;;;;;;;;4984921;28;20510;-48
2023/09/25 12:59:14;;;;;;;252.63;137.10;;;;;;;;;;4990396;28;20417;-47
2023/09/25 13:01:40;;;;;;;245.93;134.27;;;;;;;;;;4989534;28;20440;-48
2023/09/25 13:04:06;;;;;;;249.33;138.77;;;;;;;;;;4991315;28;20772;-47
2023/09/25 13:06:32;;;;;;;251.90;146.50;;;;;;;;;;4990351;28;20530;-47
2023/09/25 13:09:00;;;;;;;247.60;139.73;;;;;;;;;;4989389;28;20448;-47
2023/09/25 13:11:28;;;;;;;248.10;141.67;;;;;;;;;;4989823;28;20923;-49
2023/09/25 13:13:54;;;;;;;273.23;160.13;;;;;;;;;;4989063;28;20423;-48
2023/09/25 13:16:20;;;;;;;251.10;146.37;;;;;;;;;;4990827;28;20464;-48
2023/09/25 13:18:46;;;;;;;250.60;140.13;;;;;;;;;;4988326;28;20883;-47
2023/09/25 13:21:12;;;;;;;251.73;138.33;;;;;;;;;;4981219;28;21097;-47
2023/09/25 13:23:38;;;;;;;248.67;134.67;;;;;;;;;;4990812;28;20408;-47
2023/09/25 13:26:04;;;;;;;251.40;136.27;;;;;;;;;;4990304;28;20394;-48
2023/09/25 13:28:30;;;;;;;251.43;138.50;;;;;;;;;;4990640;28;20424;-47
2023/09/25 13:30:56;;;;;;;251.30;137.63;;;;;;;;;;4989771;28;20510;-46
2023/09/25 13:33:22;;;;;;;249.17;130.33;;;;;;;;;;4990000;28;20428;-47
2023/09/25 13:35:48;;;;;;;249.70;135.30;;;;;;;;;;4990567;28;20434;-47
2023/09/25 13:38:14;;;;;;;251.30;133.67;;;;;;;;;;4987895;28;20974;-48
2023/09/25 13:40:40;;;;;;;268.93;145.60;;;;;;;;;;4989082;28;20823;-47
2023/09/25 13:43:06;;;;;;;253.60;133.90;;;;;;;;;;4985263;28;20422;-47
2023/09/25 13:45:32;;;;;;;250.53;128.80;;;;;;;;;;4989486;28;20422;-47
2023/09/25 13:47:58;;;;;;;250.07;130.37;;;;;;;;;;4990386;28;20424;-47
2023/09/25 13:50:24;;;;;;;252.73;130.73;;;;;;;;;;4990220;28;20398;-47
2023/09/25 13:52:50;;;;;;;255.97;135.23;;;;;;;;;;4989522;28;20470;-47
2023/09/25 13:55:16;;;;;;;247.67;133.90;;;;;;;;;;4990419;28;20390;-48